Great Falls, South Carolina
Current Conditions -  °F | °C
As of 1:35 PM on Sunday 21 Dec 2014 (Local Time) from KLKR Reporting Station
Broken Clouds Broken Clouds  
Wind Chill: 52°   Ceiling: 4400
Heat Index: 52°   Visibility: 10mi
Dew Point: 39°   Wind: 7mph
Humidity: 62%   Direction: 40°NE
Pressure: 30.2"   Gusts: NA
Location:  34.58°N, 80.9°W
Report Text: KLKR 211835Z AUTO 04006KT 10SM BKN044 11/04 A3020 RMK AO2
Loading
Personal Weather Stations






























Interactive Weather Map New forecast layout! Learn more

10-Day Weather Forecast

Advertisements
Track Severe Weather on mobile